Time;durP1;ratioP1;P1;durP2;ratioP2;P2;SDS_P1;SDS_P2;PMS_P1;PMS_P2;Temp;Humidity;BMP_temperature;BMP_pressure;BME280_temperature;BME280_humidity;BME280_pressure;Samples;Min_cycle;Max_cycle;Signal;HPM_P1;HPM_P2
2021/03/04 00:00:11;;;;;;;19.83;11.38;;;10.70;99.90;;;;;;5094962;28;20032;-79
2021/03/04 00:02:38;;;;;;;19.08;11.38;;;10.70;99.90;;;;;;5095142;28;20028;-79
2021/03/04 00:05:05;;;;;;;22.00;11.98;;;10.70;99.90;;;;;;5093788;28;20125;-79
2021/03/04 00:07:31;;;;;;;18.60;11.20;;;10.70;99.90;;;;;;5095257;28;20016;-79
2021/03/04 00:09:57;;;;;;;27.00;13.23;;;10.60;99.90;;;;;;5094937;28;20035;-79
2021/03/04 00:12:23;;;;;;;23.02;12.27;;;10.60;99.90;;;;;;5094896;28;20258;-79
2021/03/04 00:14:49;;;;;;;22.35;12.27;;;10.50;99.90;;;;;;5093716;28;20472;-79
2021/03/04 00:17:15;;;;;;;23.88;12.32;;;10.40;99.90;;;;;;5094733;28;20487;-79
2021/03/04 00:19:41;;;;;;;25.42;12.38;;;10.40;99.90;;;;;;5093521;28;20040;-79
2021/03/04 00:22:07;;;;;;;27.08;13.63;;;10.30;99.90;;;;;;5093607;28;20439;-81
2021/03/04 00:24:33;;;;;;;22.52;11.52;;;10.30;99.90;;;;;;5094823;28;20036;-81
2021/03/04 00:26:59;;;;;;;19.77;11.57;;;10.30;99.90;;;;;;5093292;28;20021;-81
2021/03/04 00:29:25;;;;;;;23.00;13.45;;;10.30;99.90;;;;;;5094500;28;20469;-81
2021/03/04 00:31:51;;;;;;;25.75;13.60;;;10.20;99.90;;;;;;5094537;28;20174;-81
2021/03/04 00:34:17;;;;;;;22.88;12.98;;;10.20;99.90;;;;;;5094492;28;20535;-81
2021/03/04 00:36:43;;;;;;;21.73;11.77;;;10.10;99.90;;;;;;5095672;28;20032;-81
2021/03/04 00:39:09;;;;;;;24.88;12.73;;;10.00;99.90;;;;;;5095683;28;20028;-79
2021/03/04 00:41:35;;;;;;;21.30;12.18;;;9.90;99.90;;;;;;5094472;28;20027;-79
2021/03/04 00:44:03;;;;;;;24.67;11.95;;;9.90;99.90;;;;;;5093091;28;20024;-79
2021/03/04 00:46:29;;;;;;;23.60;11.73;;;9.90;99.90;;;;;;5094286;28;20016;-79
2021/03/04 00:48:55;;;;;;;31.70;12.65;;;10.00;99.90;;;;;;5094286;28;20103;-80
2021/03/04 00:51:21;;;;;;;18.77;10.65;;;10.00;99.90;;;;;;5093043;28;20103;-81
2021/03/04 00:53:47;;;;;;;21.23;10.85;;;10.00;99.90;;;;;;5093050;28;20077;-81
2021/03/04 00:56:13;;;;;;;18.15;9.13;;;10.00;99.90;;;;;;5094116;28;20032;-81
2021/03/04 00:58:39;;;;;;;16.55;8.43;;;10.10;99.90;;;;;;5093822;28;20048;-81
2021/03/04 01:01:05;;;;;;;14.05;8.63;;;10.20;99.90;;;;;;5093962;28;20538;-81
2021/03/04 01:03:31;;;;;;;16.60;9.63;;;10.30;99.90;;;;;;5092798;28;20020;-81
2021/03/04 01:05:58;;;;;;;14.45;8.45;;;10.30;99.90;;;;;;5093660;28;20028;-81
2021/03/04 01:08:24;;;;;;;17.73;9.27;;;10.40;99.90;;;;;;5094011;28;20046;-81
2021/03/04 01:10:50;;;;;;;30.92;9.93;;;10.40;99.90;;;;;;5093769;28;20020;-81
2021/03/04 01:13:17;;;;;;;16.05;7.53;;;10.50;99.90;;;;;;5093684;28;20028;-81
2021/03/04 01:15:43;;;;;;;28.95;7.95;;;10.50;99.90;;;;;;5093632;28;20024;-81
2021/03/04 01:18:09;;;;;;;13.82;8.40;;;10.50;99.90;;;;;;5093634;28;20028;-81
2021/03/04 01:20:36;;;;;;;18.45;8.70;;;10.60;99.90;;;;;;5093458;28;20028;-81
2021/03/04 01:23:02;;;;;;;18.90;8.95;;;10.60;99.90;;;;;;5093547;28;20028;-81
2021/03/04 01:25:28;;;;;;;16.70;8.38;;;10.60;99.90;;;;;;5093551;28;20024;-81
2021/03/04 01:27:54;;;;;;;13.18;7.43;;;10.60;99.90;;;;;;5092140;28;20060;-81
2021/03/04 01:30:25;;;;;;;11.95;6.93;;;10.60;99.90;;;;;;5093299;28;20102;-82
2021/03/04 01:32:50;;;;;;;11.93;7.55;;;10.70;99.90;;;;;;5093387;28;20028;-81
2021/03/04 01:35:17;;;;;;;12.40;7.30;;;10.70;99.90;;;;;;5092108;28;20031;-81
2021/03/04 01:37:43;;;;;;;11.25;6.72;;;10.70;99.90;;;;;;5092036;28;20285;-81
2021/03/04 01:40:11;;;;;;;11.57;6.28;;;10.70;99.90;;;;;;5093297;28;20115;-81
2021/03/04 01:42:38;;;;;;;10.65;5.90;;;10.70;99.90;;;;;;5092013;28;20082;-81
2021/03/04 01:45:05;;;;;;;13.40;8.10;;;10.70;99.90;;;;;;5091953;28;20077;-81
2021/03/04 01:47:31;;;;;;;11.27;6.80;;;10.70;99.90;;;;;;5093207;28;20016;-81
2021/03/04 01:49:58;;;;;;;9.52;5.65;;;10.70;99.90;;;;;;5091993;28;20036;-81
2021/03/04 01:52:24;;;;;;;12.95;6.13;;;10.60;99.90;;;;;;5094387;28;20016;-81
2021/03/04 01:54:51;;;;;;;8.32;4.93;;;10.60;99.90;;;;;;5075916;28;20555;-79
2021/03/04 01:57:17;;;;;;;9.85;5.38;;;10.50;99.90;;;;;;5092833;28;20046;-79
2021/03/04 01:59:44;;;;;;;12.77;5.72;;;10.50;99.90;;;;;;5092782;28;20036;-79
2021/03/04 02:02:12;;;;;;;9.57;5.70;;;10.50;99.90;;;;;;5074780;28;20112;-79
2021/03/04 02:04:38;;;;;;;11.63;6.93;;;10.50;99.90;;;;;;5093054;28;20053;-79
2021/03/04 02:07:09;;;;;;;13.50;5.43;;;10.50;99.90;;;;;;5092722;28;20024;-79
2021/03/04 02:09:39;;;;;;;13.75;6.32;;;10.50;99.90;;;;;;5092822;28;20481;-79
2021/03/04 02:12:09;;;;;;;9.95;6.03;;;10.50;99.90;;;;;;5092562;28;20016;-79
2021/03/04 02:15:04;;;;;;;9.02;5.70;;;10.50;99.90;;;;;;5092635;28;20024;-79
2021/03/04 02:17:35;;;;;;;10.43;5.63;;;10.40;99.90;;;;;;5091970;28;20077;-79
2021/03/04 02:20:07;;;;;;;7.07;5.50;;;10.40;99.90;;;;;;5092498;28;20119;-79
2021/03/04 02:23:00;;;;;;;9.32;5.22;;;10.30;99.90;;;;;;5092552;28;20038;-80
2021/03/04 02:25:55;;;;;;;9.30;5.70;;;10.30;99.90;;;;;;5091624;28;20033;-79
2021/03/04 02:28:25;;;;;;;10.73;6.30;;;10.20;99.90;;;;;;5091123;28;20353;-79
2021/03/04 02:30:53;;;;;;;12.30;6.72;;;10.20;99.90;;;;;;5092570;28;20059;-79
2021/03/04 02:33:28;;;;;;;12.48;7.13;;;10.10;99.90;;;;;;5092433;28;20115;-79
2021/03/04 02:35:55;;;;;;;10.80;6.70;;;10.10;99.90;;;;;;5074458;28;20119;-79
2021/03/04 02:38:22;;;;;;;9.90;6.63;;;10.10;99.90;;;;;;5092588;28;20047;-80
2021/03/04 02:40:52;;;;;;;14.10;7.13;;;10.10;99.90;;;;;;5092377;28;20040;-79
2021/03/04 02:43:20;;;;;;;9.80;5.80;;;10.10;99.90;;;;;;5092362;28;20031;-81
2021/03/04 02:45:47;;;;;;;12.20;6.97;;;10.10;99.90;;;;;;5091122;28;20063;-79
2021/03/04 02:48:16;;;;;;;13.65;7.55;;;10.00;99.90;;;;;;5092274;28;20032;-80
2021/03/04 02:50:43;;;;;;;12.88;6.53;;;10.10;99.90;;;;;;5092541;28;20483;-82
2021/03/04 02:53:10;;;;;;;9.82;6.20;;;10.10;99.90;;;;;;5092384;28;20492;-81
2021/03/04 02:55:38;;;;;;;11.38;6.63;;;10.00;99.90;;;;;;5092279;28;20126;-81
2021/03/04 02:58:07;;;;;;;10.70;6.53;;;10.00;99.90;;;;;;5092132;28;20040;-81
2021/03/04 03:00:35;;;;;;;17.92;8.15;;;10.00;99.90;;;;;;5090821;28;20052;-81
2021/03/04 03:03:06;;;;;;;13.00;7.32;;;10.00;99.90;;;;;;5092158;28;20464;-81
2021/03/04 03:05:34;;;;;;;15.13;7.05;;;10.00;99.90;;;;;;5092244;28;20495;-81
2021/03/04 03:08:01;;;;;;;8.93;5.70;;;10.00;99.90;;;;;;5092395;28;20023;-81
2021/03/04 03:10:28;;;;;;;8.32;5.28;;;10.00;99.90;;;;;;5093361;28;20135;-79
2021/03/04 03:12:58;;;;;;;12.00;6.30;;;9.90;99.90;;;;;;5092182;28;20476;-80
2021/03/04 03:15:26;;;;;;;8.50;5.60;;;9.90;99.90;;;;;;5090855;28;20028;-79
2021/03/04 03:17:52;;;;;;;12.98;7.38;;;9.80;99.90;;;;;;5091074;28;20028;-79
2021/03/04 03:20:20;;;;;;;15.10;7.78;;;9.80;99.90;;;;;;5091853;28;20040;-79
2021/03/04 03:22:47;;;;;;;12.75;7.30;;;9.80;99.90;;;;;;5090744;28;20028;-79
2021/03/04 03:25:14;;;;;;;12.65;8.23;;;9.80;99.90;;;;;;5091972;28;20032;-79
2021/03/04 03:27:42;;;;;;;14.18;8.52;;;9.80;99.90;;;;;;5090803;28;20103;-80
2021/03/04 03:30:11;;;;;;;15.32;8.68;;;9.80;99.90;;;;;;5094287;28;20085;-79
2021/03/04 03:32:41;;;;;;;16.15;9.40;;;9.80;99.90;;;;;;5095633;28;20020;-79
2021/03/04 03:35:09;;;;;;;15.63;9.27;;;9.80;99.90;;;;;;5095579;28;20059;-80
2021/03/04 03:37:36;;;;;;;17.15;10.07;;;9.80;99.90;;;;;;5095504;28;20031;-79
2021/03/04 03:40:05;;;;;;;18.15;10.40;;;9.80;99.90;;;;;;5095567;28;20396;-79
2021/03/04 03:42:32;;;;;;;18.42;9.30;;;9.80;99.90;;;;;;5095732;28;20028;-79
2021/03/04 03:44:58;;;;;;;14.57;9.77;;;9.80;99.90;;;;;;5095504;28;20059;-80
2021/03/04 03:47:25;;;;;;;16.65;8.15;;;9.80;99.90;;;;;;5095399;28;20036;-79
2021/03/04 03:49:51;;;;;;;11.57;7.72;;;9.80;99.90;;;;;;5094047;28;20169;-79
2021/03/04 03:52:18;;;;;;;15.90;8.48;;;9.70;99.90;;;;;;5095233;28;20114;-79
2021/03/04 03:54:44;;;;;;;18.85;8.43;;;9.70;99.90;;;;;;5094098;28;20024;-79
2021/03/04 03:57:11;;;;;;;15.88;8.23;;;9.60;99.90;;;;;;5095002;28;20036;-79
2021/03/04 03:59:37;;;;;;;16.92;9.07;;;9.60;99.90;;;;;;5093766;28;20408;-79
2021/03/04 04:02:03;;;;;;;18.52;10.02;;;9.60;99.90;;;;;;5095002;28;20027;-79
2021/03/04 04:04:30;;;;;;;17.42;9.20;;;9.60;99.90;;;;;;5095054;28;20469;-80
2021/03/04 04:06:56;;;;;;;13.82;8.77;;;9.50;99.90;;;;;;5095051;28;20109;-80
2021/03/04 04:09:24;;;;;;;14.43;8.35;;;9.50;99.90;;;;;;5095035;28;20024;-81
2021/03/04 04:11:50;;;;;;;13.27;7.28;;;9.50;99.90;;;;;;5094979;28;20020;-81
2021/03/04 04:14:16;;;;;;;12.07;7.18;;;9.40;99.90;;;;;;5094984;28;20093;-81
2021/03/04 04:16:43;;;;;;;14.10;7.78;;;9.30;99.90;;;;;;5094792;28;20035;-81
2021/03/04 04:19:09;;;;;;;23.60;10.65;;;9.20;99.90;;;;;;5094679;28;20065;-81
2021/03/04 04:21:36;;;;;;;18.27;10.00;;;9.20;99.90;;;;;;5094799;28;20031;-81
2021/03/04 04:24:02;;;;;;;19.13;10.75;;;9.30;99.90;;;;;;5095355;28;20025;-80
2021/03/04 04:26:28;;;;;;;19.30;9.80;;;9.30;99.90;;;;;;5095513;28;20035;-80
2021/03/04 04:28:54;;;;;;;15.90;8.93;;;9.30;99.90;;;;;;5094736;28;20024;-80
2021/03/04 04:31:21;;;;;;;15.77;8.10;;;9.30;99.90;;;;;;5094453;28;20032;-80
2021/03/04 04:33:47;;;;;;;16.27;8.82;;;9.20;99.90;;;;;;5094754;28;20020;-81
2021/03/04 04:36:13;;;;;;;15.60;8.57;;;9.20;99.90;;;;;;5094318;28;20074;-80
2021/03/04 04:38:39;;;;;;;15.15;8.18;;;9.20;99.90;;;;;;5094357;28;20088;-81
2021/03/04 04:41:05;;;;;;;14.55;7.85;;;9.10;99.90;;;;;;5093670;28;20028;-81
2021/03/04 04:43:31;;;;;;;18.52;9.30;;;9.10;99.90;;;;;;5093359;28;20027;-81
2021/03/04 04:45:57;;;;;;;17.30;9.45;;;9.10;99.90;;;;;;5094178;28;20068;-81
2021/03/04 04:48:22;;;;;;;15.50;8.50;;;9.10;99.90;;;;;;5094330;28;20016;-81
2021/03/04 04:50:49;;;;;;;13.35;7.43;;;9.10;99.90;;;;;;5094194;28;20024;-81
2021/03/04 04:53:14;;;;;;;12.20;6.75;;;9.00;99.90;;;;;;5092807;28;20035;-81
2021/03/04 04:55:40;;;;;;;15.57;8.57;;;8.90;99.90;;;;;;5094196;28;20016;-80
2021/03/04 04:58:06;;;;;;;15.75;8.23;;;8.90;99.90;;;;;;5093939;28;20131;-80
2021/03/04 05:00:32;;;;;;;16.10;8.50;;;8.80;99.90;;;;;;5093981;28;20043;-81
2021/03/04 05:02:58;;;;;;;14.93;7.10;;;8.80;99.90;;;;;;5093955;28;20085;-81
2021/03/04 05:05:25;;;;;;;20.10;10.27;;;8.80;99.90;;;;;;5093876;28;20392;-81
2021/03/04 05:07:52;;;;;;;22.30;9.95;;;8.80;99.90;;;;;;5093936;28;20020;-80
2021/03/04 05:10:18;;;;;;;17.25;9.20;;;8.80;99.90;;;;;;5093807;28;20020;-81
2021/03/04 05:12:44;;;;;;;18.48;10.80;;;8.80;99.90;;;;;;5093964;28;20023;-81
2021/03/04 05:15:11;;;;;;;18.48;11.07;;;8.80;99.90;;;;;;5093693;28;20028;-81
2021/03/04 05:17:38;;;;;;;24.08;11.48;;;8.80;99.90;;;;;;5092491;28;20031;-81
2021/03/04 05:20:05;;;;;;;21.23;10.23;;;8.80;99.90;;;;;;5093490;28;20028;-81
2021/03/04 05:22:32;;;;;;;18.42;10.75;;;8.80;99.90;;;;;;5075512;28;20024;-81
2021/03/04 05:24:58;;;;;;;18.25;9.93;;;8.90;99.90;;;;;;5093497;28;20074;-80
2021/03/04 05:27:26;;;;;;;22.58;12.82;;;8.90;99.90;;;;;;5092279;28;20380;-81
2021/03/04 05:29:53;;;;;;;22.80;12.35;;;8.90;99.90;;;;;;5093524;28;20038;-81
2021/03/04 05:32:19;;;;;;;21.48;11.75;;;8.90;99.90;;;;;;5093497;28;20028;-80
2021/03/04 05:34:46;;;;;;;25.58;12.13;;;8.90;99.90;;;;;;5092244;28;20032;-81
2021/03/04 05:37:12;;;;;;;24.77;13.00;;;8.90;99.90;;;;;;5093257;28;20028;-81
2021/03/04 05:39:38;;;;;;;23.80;13.18;;;8.90;99.90;;;;;;5094031;28;20089;-80
2021/03/04 05:42:08;;;;;;;23.35;12.65;;;8.80;99.90;;;;;;5093103;28;20032;-80
2021/03/04 05:44:39;;;;;;;21.85;11.98;;;8.80;99.90;;;;;;5091952;28;20561;-80
2021/03/04 05:47:05;;;;;;;23.23;11.82;;;8.90;99.90;;;;;;5093166;28;20024;-79
2021/03/04 05:49:56;;;;;;;24.65;12.20;;;8.90;99.90;;;;;;5093241;28;20027;-80
2021/03/04 05:52:23;;;;;;;20.70;10.75;;;8.90;99.90;;;;;;5081367;28;20044;-79
2021/03/04 05:54:52;;;;;;;23.05;10.90;;;9.00;99.90;;;;;;5092921;28;20438;-79
2021/03/04 05:57:20;;;;;;;22.50;11.45;;;9.00;99.90;;;;;;5092779;28;20046;-79
2021/03/04 05:59:46;;;;;;;19.58;10.35;;;9.00;99.90;;;;;;5091602;28;20044;-79
2021/03/04 06:02:13;;;;;;;22.98;12.60;;;9.10;99.90;;;;;;5092897;28;20020;-79
2021/03/04 06:04:39;;;;;;;20.75;11.77;;;9.10;99.90;;;;;;5092822;28;20028;-79
2021/03/04 06:07:05;;;;;;;19.38;10.93;;;9.10;99.90;;;;;;5092896;28;20358;-80
2021/03/04 06:09:31;;;;;;;17.75;10.90;;;9.10;99.90;;;;;;5092803;28;20535;-79
2021/03/04 06:12:04;;;;;;;19.80;11.15;;;9.10;99.90;;;;;;5092880;28;20533;-79
2021/03/04 06:14:34;;;;;;;20.20;10.65;;;9.20;99.90;;;;;;5092770;28;20102;-79
2021/03/04 06:17:26;;;;;;;21.25;11.57;;;9.20;99.90;;;;;;5092628;28;20020;-79
2021/03/04 06:19:59;;;;;;;24.50;11.07;;;9.20;99.90;;;;;;5089757;28;20044;-78
2021/03/04 06:22:26;;;;;;;18.65;10.40;;;9.20;99.90;;;;;;5092800;28;20464;-81
2021/03/04 06:24:54;;;;;;;19.23;11.05;;;9.20;99.90;;;;;;5092612;28;20059;-81
2021/03/04 06:27:31;;;;;;;15.98;10.60;;;9.30;99.90;;;;;;5092556;28;20091;-79
2021/03/04 06:29:59;;;;;;;19.63;10.57;;;9.40;99.90;;;;;;5091426;28;20056;-81
2021/03/04 06:32:27;;;;;;;24.00;13.00;;;9.40;99.90;;;;;;5091182;28;20449;-81
2021/03/04 06:35:07;;;;;;;24.95;11.95;;;9.50;99.90;;;;;;5092592;28;20074;-80
2021/03/04 06:37:34;;;;;;;19.55;10.93;;;9.50;99.90;;;;;;5092538;28;20465;-81
2021/03/04 06:40:00;;;;;;;21.38;11.02;;;9.60;99.90;;;;;;5092344;28;20564;-81
2021/03/04 06:42:26;;;;;;;19.75;11.27;;;9.70;99.90;;;;;;5092406;28;20020;-81
2021/03/04 06:44:55;;;;;;;23.55;12.02;;;9.80;99.90;;;;;;5092568;28;20028;-80
2021/03/04 06:47:28;;;;;;;23.30;11.60;;;9.80;99.90;;;;;;5091289;28;20028;-80
2021/03/04 06:49:56;;;;;;;22.77;10.85;;;9.90;99.90;;;;;;5092491;28;20120;-81
2021/03/04 06:52:29;;;;;;;21.90;12.43;;;10.00;99.90;;;;;;5092558;28;20036;-80
2021/03/04 06:55:09;;;;;;;30.85;14.43;;;10.10;99.90;;;;;;5094048;28;20025;-79
2021/03/04 06:57:35;;;;;;;21.33;12.23;;;10.20;99.90;;;;;;5095570;28;20039;-81
2021/03/04 07:00:03;;;;;;;26.92;12.98;;;10.30;99.90;;;;;;5092336;28;20387;-80
2021/03/04 07:02:30;;;;;;;20.13;11.15;;;10.30;99.90;;;;;;5092489;28;20443;-80
2021/03/04 07:04:57;;;;;;;17.20;9.00;;;10.40;99.90;;;;;;5093259;28;20056;-80
2021/03/04 07:07:25;;;;;;;14.02;7.63;;;10.50;99.90;;;;;;5095379;28;20034;-80
2021/03/04 07:09:52;;;;;;;13.07;6.70;;;10.50;99.90;;;;;;5094896;28;20492;-79
2021/03/04 07:12:20;;;;;;;15.70;7.38;;;10.50;99.90;;;;;;5096014;28;20031;-78
2021/03/04 07:14:48;;;;;;;13.95;6.93;;;10.60;99.90;;;;;;5096112;28;20357;-80
2021/03/04 07:17:21;;;;;;;15.27;7.57;;;10.60;99.90;;;;;;5095923;28;20365;-80
2021/03/04 07:19:54;;;;;;;15.57;8.10;;;10.70;99.90;;;;;;5095930;28;20441;-79
2021/03/04 07:22:21;;;;;;;13.20;8.45;;;10.80;99.90;;;;;;5097255;28;20797;-80
2021/03/04 07:24:47;;;;;;;14.20;7.55;;;10.80;99.90;;;;;;5081219;28;20357;-79
2021/03/04 07:27:15;;;;;;;12.80;7.50;;;10.90;99.90;;;;;;5095944;28;20039;-80
2021/03/04 07:29:45;;;;;;;16.33;8.20;;;10.90;99.90;;;;;;5095837;28;20052;-79
2021/03/04 07:32:13;;;;;;;22.13;9.00;;;11.00;99.90;;;;;;5095594;28;20491;-78
2021/03/04 07:34:44;;;;;;;14.38;7.60;;;11.00;99.90;;;;;;5095691;28;20102;-79
2021/03/04 07:37:14;;;;;;;15.30;7.70;;;11.00;99.90;;;;;;5094404;28;20031;-79
2021/03/04 07:39:40;;;;;;;13.35;7.78;;;11.10;99.90;;;;;;5095551;28;20043;-79
2021/03/04 07:42:22;;;;;;;21.48;7.35;;;11.20;99.90;;;;;;5095517;28;20024;-81
2021/03/04 07:44:49;;;;;;;10.43;7.07;;;11.20;99.90;;;;;;5094165;28;20035;-81
2021/03/04 07:47:24;;;;;;;15.45;7.72;;;11.30;99.90;;;;;;5095567;28;20028;-80
2021/03/04 07:49:50;;;;;;;13.70;7.22;;;11.40;99.90;;;;;;5095351;28;20538;-81
2021/03/04 07:52:24;;;;;;;21.17;9.23;;;11.40;99.90;;;;;;5095262;28;20039;-79
2021/03/04 07:54:52;;;;;;;13.52;7.80;;;11.50;99.90;;;;;;5094195;28;20024;-79
2021/03/04 07:57:20;;;;;;;12.85;7.00;;;11.60;99.90;;;;;;5093905;28;20135;-81
2021/03/04 08:00:04;;;;;;;16.15;8.10;;;11.70;99.90;;;;;;5095116;28;20105;-82
2021/03/04 08:02:42;;;;;;;14.55;7.03;;;11.70;99.90;;;;;;5095353;28;20056;-81
2021/03/04 08:05:16;;;;;;;12.13;6.85;;;11.80;99.90;;;;;;5094068;28;20047;-80
2021/03/04 08:07:47;;;;;;;13.77;7.40;;;11.90;99.90;;;;;;5094055;28;20024;-81
2021/03/04 08:10:15;;;;;;;12.77;6.93;;;12.00;99.90;;;;;;5095844;28;20028;-80
2021/03/04 08:13:00;;;;;;;10.93;7.18;;;12.10;99.90;;;;;;5098852;28;20078;-81
2021/03/04 08:15:52;;;;;;;16.52;7.03;;;12.10;99.90;;;;;;5092999;28;20113;-81
2021/03/04 08:18:20;;;;;;;13.52;7.05;;;12.20;99.90;;;;;;5092174;28;20119;-81
2021/03/04 08:20:50;;;;;;;10.75;6.55;;;12.20;99.90;;;;;;5094778;28;20151;-80
2021/03/04 08:23:17;;;;;;;13.60;6.80;;;12.20;99.90;;;;;;5094922;28;20472;-79
2021/03/04 08:25:45;;;;;;;14.30;6.82;;;12.30;99.90;;;;;;5093969;28;20541;-82
2021/03/04 08:28:21;;;;;;;12.38;7.15;;;12.40;99.90;;;;;;5094682;28;20035;-79
2021/03/04 08:30:47;;;;;;;13.60;6.18;;;12.50;99.90;;;;;;5093844;28;20027;-80
2021/03/04 08:33:14;;;;;;;12.30;6.60;;;12.50;99.90;;;;;;5093456;28;20082;-82
2021/03/04 08:35:45;;;;;;;12.15;7.18;;;12.50;99.90;;;;;;5093499;28;20491;-81
2021/03/04 08:38:14;;;;;;;11.65;6.95;;;12.50;99.90;;;;;;5094510;28;20031;-81
2021/03/04 08:40:52;;;;;;;11.25;5.07;;;12.60;99.90;;;;;;5094361;28;20063;-79
2021/03/04 08:43:19;;;;;;;10.85;6.57;;;12.70;99.90;;;;;;5094374;28;20032;-82
2021/03/04 08:45:49;;;;;;;12.05;6.88;;;12.70;99.90;;;;;;5093140;28;20032;-82
2021/03/04 08:48:15;;;;;;;13.38;6.45;;;12.80;99.90;;;;;;5094405;28;20086;-82
2021/03/04 08:50:47;;;;;;;10.52;6.78;;;12.90;99.90;;;;;;5094328;28;20465;-80
2021/03/04 08:53:18;;;;;;;10.88;6.53;;;12.90;99.90;;;;;;5076895;28;20036;-79
2021/03/04 08:55:50;;;;;;;11.30;6.28;;;12.90;99.90;;;;;;5092939;28;20028;-81
2021/03/04 08:58:18;;;;;;;11.07;5.85;;;13.10;99.90;;;;;;5093854;28;20512;-79
2021/03/04 09:00:56;;;;;;;11.15;5.95;;;13.10;99.90;;;;;;5093913;28;20081;-80
2021/03/04 09:03:25;;;;;;;11.77;6.25;;;13.20;99.90;;;;;;5092641;28;20035;-79
2021/03/04 09:06:04;;;;;;;11.77;5.75;;;13.30;99.90;;;;;;5075903;28;20469;-80
2021/03/04 09:08:47;;;;;;;11.43;7.20;;;13.40;99.90;;;;;;5094127;28;20093;-79
2021/03/04 09:11:30;;;;;;;11.50;6.97;;;13.50;99.90;;;;;;5092657;28;20215;-79
2021/03/04 09:14:06;;;;;;;8.57;6.05;;;13.50;99.90;;;;;;5093745;28;20055;-82
2021/03/04 09:16:48;;;;;;;10.65;7.03;;;13.60;99.90;;;;;;5093697;28;20111;-80
2021/03/04 09:19:27;;;;;;;11.23;6.65;;;13.80;99.90;;;;;;5093536;28;20032;-82
2021/03/04 09:21:55;;;;;;;11.38;7.03;;;13.80;99.90;;;;;;5093789;28;20063;-82
2021/03/04 09:24:21;;;;;;;12.38;6.35;;;13.90;99.90;;;;;;5093666;28;20023;-81
2021/03/04 09:26:47;;;;;;;12.95;6.63;;;13.90;99.90;;;;;;5097546;28;20107;-78
2021/03/04 09:29:14;;;;;;;12.98;7.65;;;13.90;99.90;;;;;;5093247;28;20115;-80
2021/03/04 09:31:50;;;;;;;11.55;5.22;;;14.10;99.90;;;;;;5093663;28;20020;-80
2021/03/04 09:34:16;;;;;;;10.38;5.80;;;14.30;99.90;;;;;;5093566;28;20028;-80
2021/03/04 09:36:42;;;;;;;7.63;5.22;;;14.30;99.90;;;;;;5093429;28;20024;-80
2021/03/04 09:39:08;;;;;;;9.80;5.57;;;14.40;99.90;;;;;;5091845;28;20024;-80
2021/03/04 09:41:34;;;;;;;12.02;6.07;;;14.60;99.90;;;;;;5093355;28;20031;-79
2021/03/04 09:44:02;;;;;;;12.48;6.43;;;15.00;99.90;;;;;;5093156;28;20081;-79
2021/03/04 09:46:38;;;;;;;10.27;6.38;;;15.20;99.90;;;;;;5093204;28;20020;-79
2021/03/04 09:49:15;;;;;;;12.52;6.40;;;15.30;99.90;;;;;;5093104;28;20540;-80
2021/03/04 09:51:46;;;;;;;11.80;6.88;;;15.10;99.90;;;;;;5093119;28;20020;-79
2021/03/04 09:54:27;;;;;;;11.35;7.38;;;15.30;99.90;;;;;;5093003;28;20102;-80
2021/03/04 09:57:08;;;;;;;14.73;6.80;;;15.70;99.90;;;;;;5092935;28;20560;-81
2021/03/04 09:59:47;;;;;;;11.88;6.55;;;15.50;99.90;;;;;;5091683;28;20037;-80
2021/03/04 10:02:13;;;;;;;8.50;5.40;;;15.50;99.90;;;;;;5092913;28;20032;-79
2021/03/04 10:04:54;;;;;;;10.30;6.07;;;15.40;99.90;;;;;;5092856;28;20111;-79
2021/03/04 10:07:27;;;;;;;13.23;6.85;;;15.50;99.90;;;;;;5092748;28;20066;-79
2021/03/04 10:09:53;;;;;;;;;;;15.60;99.90;;;;;;5093274;28;20032;-79
2021/03/04 10:12:19;;;;;;;12.05;7.22;;;16.00;99.90;;;;;;5092766;28;19908;-81
2021/03/04 10:14:49;;;;;;;13.02;7.32;;;16.30;99.90;;;;;;5074598;28;20107;-80
2021/03/04 10:17:16;;;;;;;11.93;8.18;;;16.60;99.90;;;;;;5092606;28;20484;-80
2021/03/04 10:19:43;;;;;;;14.40;7.93;;;16.40;99.90;;;;;;5092540;28;20028;-80
2021/03/04 10:22:10;;;;;;;11.82;7.35;;;16.80;99.90;;;;;;5092752;28;20380;-80
2021/03/04 10:24:36;;;;;;;12.35;6.72;;;17.00;99.90;;;;;;5092770;28;20023;-82
2021/03/04 10:27:07;;;;;;;10.73;6.10;;;17.30;99.90;;;;;;5092568;28;20473;-79
2021/03/04 10:29:34;;;;;;;11.90;6.40;;;17.50;98.50;;;;;;5092585;28;20024;-80
2021/03/04 10:32:01;;;;;;;12.23;6.32;;;17.60;96.20;;;;;;5092412;28;20069;-79
2021/03/04 10:34:28;;;;;;;11.43;6.05;;;17.50;95.80;;;;;;5092590;28;20126;-79
2021/03/04 10:36:54;;;;;;;10.63;6.10;;;17.20;94.40;;;;;;5092476;28;20054;-80
2021/03/04 10:39:21;;;;;;;10.48;6.18;;;17.30;94.70;;;;;;5093727;28;20041;-80
2021/03/04 10:41:48;;;;;;;12.48;6.32;;;17.60;95.10;;;;;;5099019;28;20030;-79
2021/03/04 10:44:15;;;;;;;11.90;6.43;;;17.90;95.30;;;;;;5099489;28;20387;-80
2021/03/04 10:46:41;;;;;;;11.43;6.82;;;18.30;94.60;;;;;;5096614;28;20477;-79
2021/03/04 10:49:08;;;;;;;11.05;6.45;;;18.50;93.60;;;;;;5096534;28;20129;-81
2021/03/04 10:51:35;;;;;;;11.25;6.45;;;18.70;94.20;;;;;;5096420;28;20032;-80
2021/03/04 10:54:01;;;;;;;11.57;7.30;;;18.80;93.80;;;;;;5096379;28;20101;-79
2021/03/04 10:56:27;;;;;;;13.20;7.63;;;18.00;94.10;;;;;;5098103;28;20476;-79
2021/03/04 10:58:53;;;;;;;10.60;7.00;;;18.00;94.20;;;;;;5097287;28;20093;-79
2021/03/04 11:01:21;;;;;;;12.73;6.30;;;18.20;93.90;;;;;;5096439;28;20078;-80
2021/03/04 11:03:47;;;;;;;11.13;6.60;;;18.30;93.50;;;;;;5096331;28;20020;-78
2021/03/04 11:06:13;;;;;;;14.30;6.82;;;18.60;92.90;;;;;;5096190;28;20035;-78
2021/03/04 11:08:39;;;;;;;9.75;6.40;;;18.90;92.60;;;;;;5096287;28;20150;-78
2021/03/04 11:11:05;;;;;;;11.18;6.47;;;19.00;91.20;;;;;;5094720;28;20434;-79
2021/03/04 11:13:32;;;;;;;11.40;6.68;;;19.20;91.00;;;;;;5096144;28;20030;-79
2021/03/04 11:15:57;;;;;;;9.25;5.97;;;19.40;90.40;;;;;;5096164;28;20021;-78
2021/03/04 11:18:24;;;;;;;9.95;5.65;;;19.50;88.20;;;;;;5094822;28;20028;-79
2021/03/04 11:20:50;;;;;;;11.68;5.45;;;19.00;83.90;;;;;;5094672;28;20120;-80
2021/03/04 11:23:16;;;;;;;11.90;5.25;;;18.50;81.60;;;;;;5095846;28;20027;-79
2021/03/04 11:25:42;;;;;;;7.15;4.40;;;18.80;83.50;;;;;;5095857;28;20070;-79
2021/03/04 11:28:08;;;;;;;8.60;5.38;;;19.20;80.20;;;;;;5094600;28;20024;-78
2021/03/04 11:30:35;;;;;;;6.20;4.55;;;19.40;79.00;;;;;;5095817;28;20020;-79
2021/03/04 11:33:04;;;;;;;7.43;4.93;;;19.70;78.60;;;;;;5094494;28;20032;-79
2021/03/04 11:35:30;;;;;;;10.25;5.60;;;19.90;77.80;;;;;;5095636;28;20020;-79
2021/03/04 11:37:56;;;;;;;7.85;4.88;;;20.10;77.50;;;;;;5095639;28;20024;-79
2021/03/04 11:40:23;;;;;;;9.63;5.82;;;20.30;77.30;;;;;;5095513;28;20043;-80
2021/03/04 11:42:49;;;;;;;8.10;5.88;;;20.40;78.50;;;;;;5095652;28;20027;-81
2021/03/04 11:45:16;;;;;;;9.00;5.65;;;20.50;77.60;;;;;;5095458;28;20095;-80
2021/03/04 11:47:42;;;;;;;11.13;6.00;;;20.70;78.90;;;;;;5095509;28;20028;-79
2021/03/04 11:50:10;;;;;;;10.05;5.38;;;20.70;78.00;;;;;;5095205;28;20032;-80
2021/03/04 11:52:36;;;;;;;7.68;4.32;;;20.80;78.00;;;;;;5095377;28;20498;-80
2021/03/04 11:55:04;;;;;;;10.43;6.15;;;20.70;75.60;;;;;;5095260;28;20032;-80
2021/03/04 11:57:30;;;;;;;7.07;4.90;;;20.50;76.10;;;;;;5099131;28;20089;-79
2021/03/04 11:59:57;;;;;;;8.50;5.22;;;20.60;77.60;;;;;;5094856;28;20111;-80
2021/03/04 12:02:24;;;;;;;8.85;5.18;;;20.80;77.90;;;;;;5093982;28;20043;-79
2021/03/04 12:04:51;;;;;;;9.18;5.80;;;21.00;77.60;;;;;;5095270;28;20020;-79
2021/03/04 12:07:17;;;;;;;11.68;6.32;;;21.00;77.20;;;;;;5095192;28;20020;-80
2021/03/04 12:09:43;;;;;;;12.80;6.32;;;21.20;77.70;;;;;;5095104;28;20032;-80
2021/03/04 12:12:10;;;;;;;11.80;6.15;;;21.20;77.80;;;;;;5095028;28;20042;-79
2021/03/04 12:14:36;;;;;;;9.93;6.07;;;21.20;78.00;;;;;;5095025;28;20024;-80
2021/03/04 12:17:02;;;;;;;9.10;5.47;;;20.70;77.60;;;;;;5094875;28;20024;-80
2021/03/04 12:19:28;;;;;;;11.97;7.30;;;20.90;77.30;;;;;;5094888;28;20365;-81
2021/03/04 12:21:54;;;;;;;13.13;6.05;;;21.00;78.00;;;;;;5094895;28;20622;-80
2021/03/04 12:24:20;;;;;;;11.57;7.15;;;21.00;80.30;;;;;;5094602;28;20082;-80
2021/03/04 12:26:46;;;;;;;14.48;7.43;;;20.90;79.70;;;;;;5094713;28;20024;-80
2021/03/04 12:29:13;;;;;;;13.05;7.25;;;21.10;82.10;;;;;;5093436;28;20031;-78
2021/03/04 12:31:39;;;;;;;11.07;6.68;;;20.70;82.90;;;;;;5094602;28;20103;-80
2021/03/04 12:34:05;;;;;;;13.20;7.53;;;20.30;84.10;;;;;;5093498;28;20036;-78
2021/03/04 12:36:32;;;;;;;9.02;6.05;;;20.40;84.40;;;;;;5094766;28;20453;-80
2021/03/04 12:38:58;;;;;;;9.60;5.95;;;20.60;83.40;;;;;;5094414;28;20053;-80
2021/03/04 12:41:24;;;;;;;10.27;6.32;;;20.90;81.90;;;;;;5094497;28;20024;-80
2021/03/04 12:43:50;;;;;;;9.70;6.20;;;20.90;78.70;;;;;;5094390;28;20097;-80